Time;durP1;ratioP1;P1;durP2;ratioP2;P2;SDS_P1;SDS_P2;PMS_P1;PMS_P2;Temp;Humidity;BMP_temperature;BMP_pressure;BME280_temperature;BME280_humidity;BME280_pressure;Samples;Min_cycle;Max_cycle;Signal;HPM_P1;HPM_P2
2022/01/11 00:02:16;;;;;;;;;;;;;;;1.23;82.81;102170.41;6180138;23;20092;-72
2022/01/11 00:08:31;;;;;;;16.20;11.65;;;;;;;0.81;83.61;102181.88;6179712;23;20100;-72
2022/01/11 01:03:08;;;;;;;19.38;12.65;;;;;;;0.87;84.30;102215.44;6175598;23;20533;-72
2022/01/11 01:06:19;;;;;;;22.17;14.40;;;;;;;0.37;85.96;102220.66;6176867;23;20031;-72
2022/01/11 01:09:35;;;;;;;18.88;13.32;;;;;;;0.78;84.93;102225.59;6160290;23;20074;-72
2022/01/11 01:12:47;;;;;;;22.42;13.75;;;;;;;0.67;84.83;102220.25;6178373;23;20103;-72
2022/01/11 01:16:03;;;;;;;23.75;15.57;;;;;;;0.50;86.16;102226.88;6177632;23;20343;-71
2022/01/11 01:19:43;;;;;;;23.70;15.05;;;;;;;0.66;85.44;102229.69;6177863;23;20047;-72
2022/01/11 01:22:58;;;;;;;28.10;17.42;;;;;;;0.74;85.68;102228.97;6179035;23;20224;-72
2022/01/11 01:26:16;;;;;;;19.30;12.77;;;;;;;0.92;84.84;102226.66;6178780;23;20028;-72
2022/01/11 01:29:30;;;;;;;24.85;15.73;;;;;;;0.94;84.77;102224.97;6176737;23;20138;-72
2022/01/11 01:32:44;;;;;;;26.83;13.85;;;;;;;0.75;85.43;102234.13;6176487;23;20104;-72
2022/01/11 01:36:02;;;;;;;24.42;14.60;;;;;;;0.94;85.33;102232.72;6177337;23;20052;-72
2022/01/11 01:39:19;;;;;;;34.03;21.50;;;;;;;1.12;84.88;102230.41;6178886;23;20020;-72
2022/01/11 01:42:34;;;;;;;36.25;21.52;;;;;;;1.16;85.04;102232.16;6177479;23;20036;-72
2022/01/11 01:45:54;;;;;;;29.50;17.52;;;;;;;1.25;84.29;102236.59;6176868;23;20044;-72
2022/01/11 01:49:10;;;;;;;30.65;17.75;;;;;;;1.11;84.29;102238.09;6176992;23;20028;-72
2022/01/11 01:52:17;;;;;;;29.17;17.40;;;;;;;1.15;84.41;102237.31;6160223;23;20354;-71
2022/01/11 01:55:30;;;;;;;26.67;16.40;;;;;;;1.20;84.35;102255.41;6178825;23;20115;-72
2022/01/11 01:58:47;;;;;;;25.20;15.48;;;;;;;0.78;85.36;102253.94;6176734;23;20020;-72
2022/01/11 02:02:00;;;;;;;26.30;15.65;;;;;;;0.91;85.23;102261.84;6176046;23;20299;-72
2022/01/11 02:05:19;;;;;;;23.23;14.73;;;;;;;1.02;85.25;102259.47;6177542;23;20028;-72
2022/01/11 02:08:31;;;;;;;23.65;16.40;;;;;;;1.11;84.59;102259.56;6178929;23;20016;-72
2022/01/11 02:16:22;;;;;;;24.48;14.95;;;;;;;1.10;84.55;102251.84;6183985;23;20036;-71
2022/01/11 02:22:25;;;;;;;27.27;15.20;;;;;;;1.20;84.62;102257.97;6244357;23;20024;-61
2022/01/11 02:25:29;;;;;;;26.40;16.15;;;;;;;1.23;84.15;102258.88;6241408;23;20093;-61
2022/01/11 02:28:33;;;;;;;25.65;16.13;;;;;;;1.27;83.71;102259.78;6244223;23;20027;-61
2022/01/11 02:31:38;;;;;;;27.27;16.25;;;;;;;1.25;83.31;102253.78;6225642;23;20154;-61
2022/01/11 02:34:42;;;;;;;27.10;16.80;;;;;;;1.21;83.79;102259.69;6225296;23;20027;-61
2022/01/11 02:37:57;;;;;;;24.13;15.35;;;;;;;1.15;83.99;102258.78;6243253;23;20074;-61
2022/01/11 02:41:00;;;;;;;26.88;15.35;;;;;;;1.21;83.74;102251.97;6225580;23;20456;-61
2022/01/11 02:44:04;;;;;;;26.77;16.27;;;;;;;1.25;83.62;102261.50;6225392;23;20400;-61
2022/01/11 02:47:07;;;;;;;25.15;15.93;;;;;;;1.12;83.61;102257.88;6225561;23;20408;-61
2022/01/11 02:50:17;;;;;;;22.08;14.68;;;;;;;0.99;84.29;102255.94;6244186;23;20046;-61
2022/01/11 02:53:24;;;;;;;25.13;15.30;;;;;;;0.98;84.81;102261.94;6243169;23;20402;-61
2022/01/11 02:56:30;;;;;;;25.15;16.10;;;;;;;0.96;85.01;102259.38;6245968;23;20027;-61
2022/01/11 02:59:34;;;;;;;26.30;16.30;;;;;;;0.94;85.14;102266.19;6227576;23;20514;-61
2022/01/11 03:02:38;;;;;;;;;;;;;;;0.96;85.36;102269.66;6227937;23;20429;-61
2022/01/11 03:05:46;;;;;;;19.25;10.98;;;;;;;1.04;85.02;102270.63;6227660;23;19915;-61
2022/01/11 03:08:50;;;;;;;28.23;16.92;;;;;;;1.11;84.85;102269.88;6227430;23;20109;-61
2022/01/11 03:11:56;;;;;;;22.77;14.27;;;;;;;1.10;84.83;102281.03;6227217;23;20026;-61
2022/01/11 03:15:00;;;;;;;25.25;15.43;;;;;;;1.07;84.69;102275.84;6227245;23;20066;-61
2022/01/11 03:18:04;;;;;;;;;;;;;;;0.99;84.59;102285.16;6227439;23;20083;-60
2022/01/11 03:21:11;;;;;;;22.35;12.95;;;;;;;1.01;84.77;102288.63;6184324;23;20250;-61
2022/01/11 03:24:15;;;;;;;21.92;14.45;;;;;;;1.07;84.29;102288.72;6184442;23;20023;-61
2022/01/11 03:27:19;;;;;;;18.05;12.80;;;;;;;1.05;84.14;102294.69;6184403;23;20071;-61
2022/01/11 03:30:22;;;;;;;20.25;12.55;;;;;;;0.93;84.07;102295.38;6184356;23;20413;-61
2022/01/11 03:33:29;;;;;;;18.48;13.15;;;;;;;1.06;84.00;102302.44;6184003;23;20024;-61
2022/01/11 03:36:33;;;;;;;20.30;13.30;;;;;;;1.11;83.49;102300.78;6184251;23;20086;-61
2022/01/11 03:39:37;;;;;;;15.98;10.32;;;;;;;1.06;83.08;102294.72;6184262;23;20079;-61
2022/01/11 03:42:40;;;;;;;13.48;9.52;;;;;;;1.01;82.48;102304.06;6185648;23;20028;-61
2022/01/11 03:45:44;;;;;;;16.00;9.90;;;;;;;0.68;83.56;102307.84;6184016;23;20140;-61
2022/01/11 03:48:49;;;;;;;14.27;10.35;;;;;;;0.64;83.81;102313.78;6183923;23;20072;-61
2022/01/11 03:51:53;;;;;;;;;;;;;;;0.82;83.60;102322.66;6167297;23;20370;-61
2022/01/11 03:58:07;;;;;;;14.73;10.05;;;;;;;1.03;82.54;102322.16;6201376;23;20087;-61
2022/01/11 04:01:10;;;;;;;16.92;11.52;;;;;;;1.03;82.98;102320.44;6184008;23;20028;-61
2022/01/11 04:04:15;;;;;;;17.20;10.88;;;;;;;1.05;82.57;102320.44;6183976;23;20465;-61
2022/01/11 04:07:24;;;;;;;14.25;9.55;;;;;;;0.99;82.54;102320.34;6183688;23;20371;-61
2022/01/11 04:10:27;;;;;;;18.50;10.30;;;;;;;0.97;82.87;102322.03;6183860;23;20075;-61
2022/01/11 04:13:31;;;;;;;17.05;10.13;;;;;;;1.04;82.55;102318.72;6183942;23;20050;-60
2022/01/11 04:16:34;;;;;;;17.00;10.48;;;;;;;0.96;82.55;102322.88;6184825;23;20111;-61
2022/01/11 04:19:39;;;;;;;14.57;10.38;;;;;;;1.01;82.50;102321.25;6183892;23;20108;-61
2022/01/11 04:22:42;;;;;;;14.95;10.15;;;;;;;0.92;82.65;102324.53;6196304;23;20035;-61
2022/01/11 04:26:36;;;;;;;12.32;9.30;;;;;;;0.65;83.16;102324.94;6214000;23;20028;-61
2022/01/11 04:29:42;;;;;;;12.05;8.73;;;;;;;0.76;82.73;102313.09;6213832;23;20047;-61
2022/01/11 04:32:46;;;;;;;13.10;9.55;;;;;;;0.88;82.48;102317.59;6196358;23;20055;-61
2022/01/11 04:35:53;;;;;;;13.93;8.38;;;;;;;0.84;82.25;102324.41;6214836;23;20051;-62
2022/01/11 04:38:59;;;;;;;14.55;9.52;;;;;;;0.78;82.59;102320.88;6196418;23;20468;-62
2022/01/11 04:42:03;;;;;;;13.02;9.05;;;;;;;0.49;83.86;102326.38;6196348;23;20035;-62
2022/01/11 04:45:10;;;;;;;12.30;8.95;;;;;;;0.69;83.36;102326.72;6196179;23;20023;-62
2022/01/11 04:48:15;;;;;;;16.75;11.02;;;;;;;0.79;82.73;102322.59;6196288;23;20023;-61
2022/01/11 04:51:20;;;;;;;12.90;9.15;;;;;;;0.84;83.07;102329.56;6195958;23;20146;-62
2022/01/11 04:54:23;;;;;;;14.90;9.30;;;;;;;0.67;83.31;102324.13;6196228;23;20027;-62
2022/01/11 04:57:27;;;;;;;15.20;9.82;;;;;;;0.80;83.20;102339.75;6196006;23;20070;-61
2022/01/11 05:00:30;;;;;;;16.15;10.27;;;;;;;0.88;83.17;102333.06;6213609;23;20027;-62
2022/01/11 05:03:34;;;;;;;17.27;10.75;;;;;;;0.90;83.39;102333.97;6214490;23;20473;-61
2022/01/11 05:06:40;;;;;;;14.85;9.88;;;;;;;0.63;83.99;102336.91;6196134;23;20020;-62
2022/01/11 05:09:43;;;;;;;16.25;10.82;;;;;;;0.62;84.16;102341.19;6173331;23;20043;-61
2022/01/11 05:12:47;;;;;;;16.42;10.10;;;;;;;0.59;84.67;102346.28;6207897;23;20024;-62
2022/01/11 05:15:52;;;;;;;18.33;11.07;;;;;;;0.71;84.20;102349.94;6207410;23;20421;-62
2022/01/11 05:18:55;;;;;;;18.33;12.32;;;;;;;0.78;84.61;102352.63;6189523;23;20027;-62
2022/01/11 05:21:59;;;;;;;15.73;10.82;;;;;;;0.85;84.47;102353.59;6189746;23;20027;-61
2022/01/11 05:25:04;;;;;;;15.73;10.35;;;;;;;0.86;84.30;102345.91;6207961;23;20377;-62
2022/01/11 05:28:08;;;;;;;20.40;11.48;;;;;;;0.78;84.64;102349.19;6208256;23;20031;-62
2022/01/11 05:31:11;;;;;;;19.88;10.88;;;;;;;0.70;84.76;102338.75;6189658;23;20023;-62
2022/01/11 05:34:15;;;;;;;23.00;12.38;;;;;;;0.62;84.74;102346.34;6187914;23;20358;-62
2022/01/11 05:37:18;;;;;;;24.67;11.35;;;;;;;0.38;85.49;102340.75;6187597;23;20043;-62
2022/01/11 05:40:22;;;;;;;18.92;10.35;;;;;;;0.53;85.33;102346.19;6187859;23;20027;-62
2022/01/11 05:43:28;;;;;;;16.85;10.63;;;;;;;0.13;86.66;102355.72;6188587;23;20109;-62
2022/01/11 05:46:57;;;;;;;17.67;9.93;;;;;;;0.37;85.94;102359.59;6207536;23;20023;-62
2022/01/11 05:50:03;;;;;;;16.58;10.00;;;;;;;0.58;85.35;102362.59;6205976;23;20099;-63
2022/01/11 05:53:08;;;;;;;17.08;10.25;;;;;;;0.75;84.98;102362.00;6189699;23;20027;-62
2022/01/11 05:56:11;;;;;;;20.85;10.35;;;;;;;0.74;84.40;102368.00;6188954;23;20028;-63
2022/01/11 05:59:15;;;;;;;21.13;10.98;;;;;;;0.69;84.40;102368.78;6189847;23;20059;-63
2022/01/11 06:02:19;;;;;;;18.60;9.45;;;;;;;0.72;84.46;102362.81;6190557;23;20472;-62
2022/01/11 06:05:24;;;;;;;28.88;9.57;;;;;;;0.71;84.45;102373.09;6208210;23;20026;-62
2022/01/11 06:08:31;;;;;;;13.70;9.43;;;;;;;0.64;84.36;102370.41;6207563;23;20110;-62
2022/01/11 06:11:34;;;;;;;15.98;10.15;;;;;;;0.68;84.32;102366.19;6189514;23;20027;-62
2022/01/11 06:14:38;;;;;;;18.92;9.52;;;;;;;0.67;84.64;102373.06;6189741;23;20350;-63
2022/01/11 06:17:41;;;;;;;15.57;9.57;;;;;;;0.68;84.79;102377.34;6207036;23;20512;-63
2022/01/11 06:20:46;;;;;;;55.78;10.02;;;;;;;0.41;85.12;102385.41;6189737;23;20046;-62
2022/01/11 06:23:50;;;;;;;23.67;11.55;;;;;;;0.48;85.54;102386.41;6190010;23;20096;-62
2022/01/11 06:26:54;;;;;;;20.75;10.30;;;;;;;0.58;85.12;102384.88;6207978;23;20023;-62
2022/01/11 06:29:58;;;;;;;30.27;11.32;;;;;;;-0.09;87.49;102386.97;6209278;23;20025;-62
2022/01/11 06:33:02;;;;;;;19.15;10.35;;;;;;;0.10;87.41;102393.38;6208593;23;20131;-62
2022/01/11 06:36:10;;;;;;;16.23;9.82;;;;;;;0.32;86.91;102381.78;6191407;23;20147;-63
2022/01/11 06:39:14;;;;;;;22.58;11.18;;;;;;;-0.18;88.10;102400.50;6190640;23;20086;-63
2022/01/11 06:42:17;;;;;;;16.60;9.45;;;;;;;0.16;87.68;102399.50;6191327;23;20027;-63
2022/01/11 06:45:22;;;;;;;14.05;9.00;;;;;;;0.35;86.88;102397.28;6209773;23;20027;-62
2022/01/11 06:48:27;;;;;;;18.40;10.27;;;;;;;0.31;86.90;102410.94;6209623;23;20023;-62
2022/01/11 06:51:31;;;;;;;22.35;10.98;;;;;;;0.46;86.60;102395.81;6191955;23;20118;-62
2022/01/11 06:54:34;;;;;;;17.75;9.30;;;;;;;0.48;85.93;102399.28;6209841;23;20027;-62
2022/01/11 06:57:37;;;;;;;21.20;10.38;;;;;;;0.55;85.94;102408.00;6191105;23;20027;-62
2022/01/11 07:00:40;;;;;;;;;;;;;;;0.64;85.69;102405.59;6191884;23;20192;-62
2022/01/11 07:03:47;;;;;;;21.17;10.30;;;;;;;0.60;85.75;102409.78;6191486;23;19957;-63
2022/01/11 07:07:02;;;;;;;21.88;11.10;;;;;;;0.68;85.67;102417.69;6190461;23;20038;-63
2022/01/11 07:10:06;;;;;;;18.33;10.45;;;;;;;0.75;85.48;102409.22;6190570;23;20106;-63
2022/01/11 07:13:09;;;;;;;20.02;11.32;;;;;;;0.75;85.65;102408.38;6192857;23;20410;-62
2022/01/11 07:16:13;;;;;;;18.10;10.57;;;;;;;0.77;85.38;102419.56;6193308;23;20173;-62
2022/01/11 07:19:18;;;;;;;19.58;11.25;;;;;;;0.75;85.21;102408.38;6208963;23;20024;-62
2022/01/11 07:22:23;;;;;;;23.65;11.68;;;;;;;0.36;86.07;102429.94;6176605;23;20035;-62
2022/01/11 07:25:30;;;;;;;18.42;10.93;;;;;;;0.61;85.66;102436.44;6195386;23;20027;-62
2022/01/11 07:28:35;;;;;;;25.00;14.82;;;;;;;0.71;85.73;102440.06;6178352;23;20020;-62
2022/01/11 07:31:43;;;;;;;44.25;24.30;;;;;;;0.74;85.12;102447.84;6178017;23;20079;-61
2022/01/11 07:34:49;;;;;;;40.90;22.38;;;;;;;0.77;84.92;102453.03;6195272;23;20042;-63
2022/01/11 07:37:53;;;;;;;32.10;20.38;;;;;;;0.69;84.71;102451.16;6177680;23;20032;-63
2022/01/11 07:40:56;;;;;;;24.83;10.55;;;;;;;0.29;85.40;102459.81;6179120;23;20028;-62
2022/01/11 07:44:20;;;;;;;19.57;9.73;;;;;;;0.37;85.93;102462.53;6177907;23;20570;-62
2022/01/11 07:47:24;;;;;;;16.08;9.32;;;;;;;0.36;85.61;102461.66;6177957;23;20063;-63
2022/01/11 07:50:28;;;;;;;84.65;17.15;;;;;;;0.42;85.26;102466.09;6177479;23;20087;-63
2022/01/11 07:53:33;;;;;;;21.30;9.25;;;;;;;0.23;85.61;102475.97;6178559;23;20103;-62
2022/01/11 07:56:42;;;;;;;19.23;11.73;;;;;;;0.46;85.18;102478.16;6178452;23;20357;-61
2022/01/11 07:59:46;;;;;;;11.73;7.07;;;;;;;0.27;84.80;102481.19;6179116;23;20032;-62
2022/01/11 08:02:51;;;;;;;13.30;7.95;;;;;;;0.41;85.08;102483.19;6178555;23;20099;-62
2022/01/11 08:06:14;;;;;;;17.38;9.85;;;;;;;0.25;85.24;102495.72;6179128;23;20059;-62
2022/01/11 08:09:20;;;;;;;13.35;8.52;;;;;;;0.37;84.37;102483.97;6175913;23;20497;-63
2022/01/11 08:12:23;;;;;;;16.15;8.85;;;;;;;0.39;84.61;102490.03;6179203;23;20032;-62
2022/01/11 08:15:27;;;;;;;14.15;8.38;;;;;;;0.17;84.57;102500.72;6161533;23;20092;-62
2022/01/11 08:18:30;;;;;;;11.50;7.63;;;;;;;0.01;85.43;102499.50;6177418;23;20072;-62
2022/01/11 08:21:33;;;;;;;14.63;8.65;;;;;;;0.11;84.80;102506.56;6198514;23;20093;-63
2022/01/11 08:24:41;;;;;;;11.23;7.57;;;;;;;0.32;84.54;102513.91;6207757;23;20401;-63
2022/01/11 08:27:44;;;;;;;13.32;8.63;;;;;;;0.50;83.64;102520.28;6208927;23;20023;-62
2022/01/11 08:30:48;;;;;;;12.05;7.55;;;;;;;0.49;83.10;102511.69;6208785;23;20339;-62
2022/01/11 08:33:54;;;;;;;11.13;6.68;;;;;;;0.41;83.02;102515.78;6190517;23;20075;-62
2022/01/11 08:36:58;;;;;;;17.45;7.97;;;;;;;-0.39;85.81;102524.22;6191664;23;20083;-62
2022/01/11 08:40:04;;;;;;;13.07;7.95;;;;;;;0.03;85.55;102523.53;6208691;23;20031;-62
2022/01/11 08:43:08;;;;;;;13.35;7.80;;;;;;;0.28;84.92;102529.22;6209152;23;20078;-62
2022/01/11 08:46:16;;;;;;;13.93;8.93;;;;;;;0.25;84.41;102531.75;6190007;23;20031;-62
2022/01/11 08:49:35;;;;;;;12.05;6.95;;;;;;;0.50;83.09;102538.28;6192654;23;20106;-62
2022/01/11 08:56:35;;;;;;;13.82;8.10;;;;;;;0.50;82.84;102538.28;6213222;23;19954;-62
2022/01/11 08:59:39;;;;;;;12.70;7.32;;;;;;;0.59;82.79;102543.66;6196388;23;20023;-62
2022/01/11 09:02:53;;;;;;;13.60;8.05;;;;;;;0.67;82.35;102540.41;6195923;23;20139;-62
2022/01/11 09:05:58;;;;;;;11.93;7.45;;;;;;;0.64;82.46;102542.06;6196112;23;20083;-62
2022/01/11 09:09:03;;;;;;;13.63;7.70;;;;;;;0.59;82.49;102547.09;6196074;23;20023;-63
2022/01/11 09:12:08;;;;;;;13.40;8.60;;;;;;;0.66;82.42;102542.94;6196077;23;20092;-62
2022/01/11 09:15:15;;;;;;;12.63;8.30;;;;;;;0.65;82.54;102544.63;6195992;23;20086;-63
2022/01/11 09:18:19;;;;;;;12.85;8.00;;;;;;;0.63;82.45;102543.72;6213201;23;20024;-62
2022/01/11 09:21:24;;;;;;;11.80;7.22;;;;;;;0.56;82.62;102541.88;6183034;23;20096;-62
2022/01/11 09:24:31;;;;;;;12.93;7.78;;;;;;;0.56;83.16;102553.88;6183270;23;20040;-62
2022/01/11 09:27:38;;;;;;;11.23;6.65;;;;;;;0.51;82.96;102542.59;6182871;23;20052;-62
2022/01/11 09:30:42;;;;;;;13.88;8.27;;;;;;;0.56;83.07;102557.31;6183321;23;20506;-62
2022/01/11 09:33:46;;;;;;;11.90;7.78;;;;;;;0.69;82.64;102558.44;6183190;23;20024;-62
2022/01/11 09:36:50;;;;;;;13.38;7.93;;;;;;;0.77;82.09;102556.03;6184184;23;20024;-62
2022/01/11 09:39:53;;;;;;;;;;;;;;;0.72;82.37;102553.34;6183836;23;20028;-62
2022/01/11 09:43:01;;;;;;;13.07;7.53;;;;;;;0.72;82.29;102547.34;6183195;23;19978;-62
2022/01/11 09:46:04;;;;;;;11.48;6.75;;;;;;;0.76;82.24;102549.13;6200617;23;20027;-62
2022/01/11 09:49:08;;;;;;;10.02;7.00;;;;;;;0.77;82.45;102550.91;6183035;23;20023;-62
2022/01/11 09:52:14;;;;;;;11.55;7.43;;;;;;;0.76;82.24;102549.13;6183112;23;20083;-62
2022/01/11 09:55:18;;;;;;;11.18;7.28;;;;;;;0.79;82.44;102551.78;6183120;23;20096;-62
2022/01/11 09:58:23;;;;;;;10.80;6.82;;;;;;;0.77;81.80;102550.91;6183088;23;20032;-62
2022/01/11 10:01:29;;;;;;;12.00;7.18;;;;;;;0.76;82.15;102554.28;6184036;23;20028;-62
2022/01/11 10:04:59;;;;;;;13.30;7.88;;;;;;;0.75;82.41;102552.56;6185309;23;20043;-62
2022/01/11 10:08:27;;;;;;;10.80;6.68;;;;;;;0.78;82.46;102550.03;6186245;23;20347;-62
2022/01/11 10:11:36;;;;;;;10.88;7.47;;;;;;;0.57;82.52;102556.47;6185162;23;20407;-62
2022/01/11 10:14:54;;;;;;;10.07;6.65;;;;;;;0.44;83.07;102557.03;6185521;23;20028;-62
2022/01/11 10:17:58;;;;;;;14.50;8.65;;;;;;;0.50;83.60;102557.19;6184745;23;20114;-62
2022/01/11 10:21:37;;;;;;;15.30;8.07;;;;;;;0.42;82.96;102545.88;6184887;23;20074;-62
2022/01/11 10:24:48;;;;;;;15.88;10.90;;;;;;;0.39;82.99;102558.66;6185043;23;20028;-62
2022/01/11 10:28:04;;;;;;;12.52;8.23;;;;;;;0.51;82.66;102552.91;6184938;23;20143;-62
2022/01/11 10:31:10;;;;;;;11.43;7.13;;;;;;;0.74;81.62;102556.84;6202184;23;20027;-62
2022/01/11 10:34:25;;;;;;;10.30;5.93;;;;;;;0.75;81.07;102552.56;6184836;23;20027;-62
2022/01/11 10:37:37;;;;;;;9.23;5.65;;;;;;;0.61;81.54;102555.72;6202225;23;20355;-63
2022/01/11 10:40:45;;;;;;;8.68;5.10;;;;;;;0.76;82.11;102549.13;6202175;23;20097;-62
2022/01/11 10:43:51;;;;;;;8.70;6.47;;;;;;;0.78;81.66;102544.91;6184764;23;20068;-63
2022/01/11 10:47:02;;;;;;;9.30;5.63;;;;;;;0.84;81.82;102548.47;6184992;23;20347;-63
2022/01/11 10:50:11;;;;;;;8.10;5.53;;;;;;;0.85;81.50;102544.19;6184752;23;20027;-62
2022/01/11 10:53:20;;;;;;;9.25;5.38;;;;;;;0.81;81.26;102542.38;6184762;23;20024;-62
2022/01/11 10:56:39;;;;;;;7.05;5.18;;;;;;;0.78;80.96;102542.31;6184351;23;20028;-62
2022/01/11 11:00:05;;;;;;;9.88;5.00;;;;;;;0.54;81.44;102546.09;6201994;23;20087;-62
2022/01/11 11:03:13;;;;;;;6.65;4.75;;;;;;;0.60;82.34;102546.22;6184562;23;20068;-62
2022/01/11 11:06:19;;;;;;;6.50;4.60;;;;;;;0.76;81.42;102534.56;6184586;23;20521;-62
2022/01/11 11:09:26;;;;;;;7.43;4.28;;;;;;;0.78;81.38;102534.59;6184444;23;20521;-62
2022/01/11 11:12:36;;;;;;;6.40;4.40;;;;;;;0.40;82.79;102535.53;6184572;23;20044;-62
2022/01/11 11:15:43;;;;;;;9.38;5.43;;;;;;;0.00;84.53;102526.06;6201582;23;20399;-62
2022/01/11 11:18:52;;;;;;;7.18;5.20;;;;;;;0.28;83.53;102524.94;6184253;23;20103;-62
2022/01/11 11:21:59;;;;;;;9.23;5.82;;;;;;;0.44;82.48;102523.59;6195252;23;20043;-62
2022/01/11 11:25:04;;;;;;;;;;;;;;;0.68;82.53;102523.25;6206922;23;20109;-62
2022/01/11 11:28:07;;;;;;;8.15;4.90;;;;;;;0.88;82.18;102523.63;6209132;23;19938;-61
2022/01/11 11:31:12;;;;;;;12.07;7.22;;;;;;;0.99;81.85;102513.53;6209981;23;20075;-62
2022/01/11 11:34:16;;;;;;;12.18;7.78;;;;;;;1.12;81.35;102512.94;6210322;23;20024;-62
2022/01/11 11:37:46;;;;;;;;;;;;;;;1.18;80.49;102518.19;6209409;23;20075;-62
2022/01/11 11:40:54;;;;;;;9.18;6.22;;;;;;;1.01;81.95;102517.88;6209380;23;19915;-63
2022/01/11 11:44:15;;;;;;;8.48;5.82;;;;;;;1.16;80.68;102510.44;6208716;23;20031;-62
2022/01/11 11:47:38;;;;;;;8.45;6.00;;;;;;;0.82;81.00;102519.22;6209180;23;20469;-62
2022/01/11 11:50:51;;;;;;;10.30;7.40;;;;;;;0.92;81.40;102515.97;6209486;23;20044;-62
2022/01/11 11:53:54;;;;;;;7.82;5.50;;;;;;;0.76;82.45;102518.22;6208010;23;20082;-63
2022/01/11 11:57:01;;;;;;;11.82;7.13;;;;;;;0.40;83.81;102509.78;6209122;23;20027;-62
2022/01/11 12:00:11;;;;;;;7.40;5.20;;;;;;;0.71;83.81;102509.56;6210624;23;20074;-62
2022/01/11 12:03:24;;;;;;;8.23;5.80;;;;;;;0.74;83.10;102509.63;6210166;23;20108;-62
2022/01/11 12:06:28;;;;;;;10.30;6.60;;;;;;;1.01;82.46;102509.28;6210735;23;20107;-62
2022/01/11 12:09:42;;;;;;;8.93;6.32;;;;;;;1.22;81.92;102508.84;6210952;23;20354;-63
2022/01/11 12:12:51;;;;;;;12.25;6.78;;;;;;;1.38;81.26;102508.25;6210719;23;20090;-63
2022/01/11 12:15:54;;;;;;;12.73;8.18;;;;;;;1.47;80.82;102505.84;6210719;23;20027;-62
2022/01/11 12:19:04;;;;;;;10.80;7.50;;;;;;;1.26;81.53;102505.47;6210303;23;20070;-62
2022/01/11 12:22:07;;;;;;;11.02;6.50;;;;;;;1.32;81.53;102500.41;6210878;23;20067;-62
2022/01/11 12:25:26;;;;;;;;;;;;;;;1.45;80.92;102501.50;6210466;23;20022;-62
2022/01/11 12:28:31;;;;;;;8.75;6.50;;;;;;;1.39;80.72;102505.69;6210446;23;19915;-62
2022/01/11 12:31:45;;;;;;;9.30;6.43;;;;;;;1.39;81.27;102507.41;6210070;23;20473;-62
2022/01/11 12:35:01;;;;;;;9.57;5.60;;;;;;;1.36;80.55;102502.19;6210323;23;20028;-62
2022/01/11 12:38:07;;;;;;;9.95;6.18;;;;;;;1.38;81.18;102500.53;6210236;23;20027;-63
2022/01/11 12:41:29;;;;;;;10.10;6.63;;;;;;;1.35;81.72;102500.47;6210061;23;20358;-62
2022/01/11 12:45:35;;;;;;;11.43;7.50;;;;;;;1.10;82.68;102505.16;6210931;23;20054;-63
2022/01/11 12:47:57;;;;;;;8.65;6.43;;;;;;;1.19;82.83;102509.63;6209982;23;20020;-63
2022/01/11 12:51:01;;;;;;;8.10;5.93;;;;;;;1.30;82.17;102504.66;6208949;23;20075;-63
2022/01/11 12:54:13;;;;;;;8.07;5.85;;;;;;;1.16;82.45;102513.03;6209805;23;20026;-62
2022/01/11 12:57:22;;;;;;;10.38;6.40;;;;;;;1.15;82.19;102513.00;6209204;23;20127;-62
2022/01/11 13:00:25;;;;;;;9.60;6.20;;;;;;;1.28;81.62;102514.97;6208279;23;20410;-62
2022/01/11 13:03:28;;;;;;;9.20;6.18;;;;;;;1.26;82.10;102506.31;6209858;23;20481;-62
2022/01/11 13:06:37;;;;;;;10.88;6.40;;;;;;;1.16;82.76;102507.88;6209512;23;20063;-63
2022/01/11 13:09:41;;;;;;;9.65;6.40;;;;;;;1.14;82.88;102500.94;6209423;23;20559;-62
2022/01/11 13:13:03;;;;;;;;;;;;;;;1.21;82.94;102507.06;6208991;23;20421;-62
2022/01/11 13:16:21;;;;;;;10.60;6.88;;;;;;;1.41;82.29;102492.84;6208909;23;19954;-62
2022/01/11 13:19:25;;;;;;;9.30;6.05;;;;;;;1.50;81.89;102485.28;6208403;23;20545;-62
2022/01/11 13:22:29;;;;;;;8.52;6.28;;;;;;;1.51;81.67;102484.41;6208483;23;20027;-63
2022/01/11 13:25:52;;;;;;;9.70;6.22;;;;;;;1.54;81.53;102481.88;6209352;23;20027;-63
2022/01/11 13:28:57;;;;;;;8.73;6.13;;;;;;;1.50;82.12;102482.69;6189566;23;20032;-63
2022/01/11 13:32:01;;;;;;;9.63;6.63;;;;;;;1.54;81.62;102483.59;6208230;23;20082;-62
2022/01/11 13:35:11;;;;;;;10.88;7.57;;;;;;;1.53;81.17;102487.91;6209116;23;20473;-62
2022/01/11 13:38:14;;;;;;;12.02;6.68;;;;;;;1.51;81.47;102486.13;6208287;23;20472;-62
2022/01/11 13:41:30;;;;;;;9.65;7.03;;;;;;;1.54;81.68;102496.50;6209288;23;20028;-62
2022/01/11 13:44:37;;;;;;;9.10;5.75;;;;;;;1.43;82.23;102490.28;6207017;23;20055;-64
2022/01/11 13:47:40;;;;;;;12.20;7.40;;;;;;;1.45;82.20;102488.59;6207679;23;20018;-62
2022/01/11 13:50:56;;;;;;;;;;;;;;;1.42;82.11;102483.41;6209896;23;20024;-63
2022/01/11 13:54:05;;;;;;;10.63;6.72;;;;;;;1.46;81.62;102490.31;6208196;23;19974;-67
2022/01/11 13:57:15;;;;;;;9.15;6.38;;;;;;;1.35;81.92;102490.16;6207779;23;20027;-66
2022/01/11 14:00:19;;;;;;;9.90;7.05;;;;;;;1.23;82.07;102489.94;6208323;23;20023;-63
2022/01/11 14:03:22;;;;;;;;;;;;;;;1.20;82.55;102505.34;6208658;23;20024;-63
2022/01/11 14:06:25;;;;;;;9.95;7.25;;;;;;;1.09;83.59;102494.84;6209344;23;20283;-62
2022/01/11 14:09:37;;;;;;;12.00;7.57;;;;;;;1.25;83.37;102491.72;6208664;23;20027;-62
2022/01/11 14:12:43;;;;;;;8.90;6.95;;;;;;;1.26;83.08;102493.44;6208870;23;20027;-63
2022/01/11 14:15:47;;;;;;;10.45;7.78;;;;;;;1.44;83.84;102495.47;6209453;23;20078;-62
2022/01/11 14:19:09;;;;;;;10.68;7.63;;;;;;;1.46;82.86;102501.50;6206263;23;20463;-62
2022/01/11 14:22:13;;;;;;;9.63;6.32;;;;;;;1.48;82.03;102497.25;6207460;23;20162;-62
2022/01/11 14:25:29;;;;;;;9.02;6.50;;;;;;;1.41;82.17;102495.41;6207774;23;20026;-62
2022/01/11 14:28:34;;;;;;;9.20;6.80;;;;;;;1.25;82.58;102496.00;6206098;23;20078;-62
2022/01/11 14:31:38;;;;;;;15.32;9.93;;;;;;;1.23;82.29;102497.66;6207370;23;20028;-62
2022/01/11 14:34:54;;;;;;;12.65;7.97;;;;;;;1.12;83.22;102508.66;6201980;23;20074;-62
2022/01/11 14:38:00;;;;;;;10.55;7.00;;;;;;;1.22;83.13;102495.94;6206595;23;20154;-62
2022/01/11 14:41:05;;;;;;;10.85;7.10;;;;;;;1.15;82.92;102498.41;6207443;23;20027;-62
2022/01/11 14:44:18;;;;;;;10.40;7.28;;;;;;;1.25;82.58;102501.16;6208849;23;20031;-62
2022/01/11 14:47:21;;;;;;;11.10;8.43;;;;;;;1.25;82.83;102503.72;6208778;23;20067;-63
2022/01/11 14:50:28;;;;;;;10.85;6.88;;;;;;;1.18;83.38;102513.03;6208624;23;20028;-62
2022/01/11 14:53:34;;;;;;;11.75;8.32;;;;;;;0.64;84.89;102517.16;6210445;23;20031;-62
2022/01/11 14:56:42;;;;;;;12.00;7.90;;;;;;;0.81;84.84;102517.50;6209779;23;20066;-62
2022/01/11 14:59:47;;;;;;;11.20;8.15;;;;;;;0.67;85.03;102524.06;6210329;23;20112;-63
2022/01/11 15:02:50;;;;;;;12.27;7.97;;;;;;;0.54;85.70;102517.78;6209715;23;20099;-62
2022/01/11 15:06:11;;;;;;;12.50;8.30;;;;;;;0.77;85.44;102522.56;6208993;23;20039;-62
2022/01/11 15:09:22;;;;;;;13.48;8.38;;;;;;;0.77;85.12;102527.72;6209970;23;20027;-62
2022/01/11 15:12:26;;;;;;;11.77;8.63;;;;;;;0.59;85.41;102531.63;6192079;23;20404;-62
2022/01/11 15:15:30;;;;;;;9.50;6.50;;;;;;;0.76;85.00;102525.97;6191188;23;20028;-62
2022/01/11 15:18:33;;;;;;;10.60;6.75;;;;;;;0.84;84.46;102534.72;6209608;23;20357;-62
2022/01/11 15:21:38;;;;;;;11.27;6.78;;;;;;;0.89;84.18;102533.09;6209167;23;20074;-63
2022/01/11 15:24:41;;;;;;;10.23;6.85;;;;;;;0.91;83.86;102539.16;6209378;23;20082;-62
2022/01/11 15:27:44;;;;;;;10.43;7.15;;;;;;;0.92;83.48;102539.16;6210178;23;20023;-62
2022/01/11 15:30:48;;;;;;;10.48;6.72;;;;;;;0.92;83.74;102530.56;6210200;23;20043;-63
2022/01/11 15:33:52;;;;;;;10.43;7.20;;;;;;;0.52;85.23;102541.78;6210142;23;20027;-61
2022/01/11 15:36:56;;;;;;;10.45;7.18;;;;;;;0.41;85.74;102533.81;6208300;23;20076;-61
2022/01/11 15:39:59;;;;;;;9.52;6.80;;;;;;;0.57;85.38;102541.03;6209398;23;20071;-62
2022/01/11 15:43:03;;;;;;;11.10;7.68;;;;;;;0.71;84.70;102543.91;6209120;23;20032;-61
2022/01/11 15:46:06;;;;;;;10.75;6.55;;;;;;;0.81;84.12;102547.53;6209779;23;20032;-62